Time;durP1;ratioP1;P1;durP2;ratioP2;P2;SDS_P1;SDS_P2;PMS_P1;PMS_P2;Temp;Humidity;BMP_temperature;BMP_pressure;BME280_temperature;BME280_humidity;BME280_pressure;Samples;Min_cycle;Max_cycle;Signal;HPM_P1;HPM_P2
2023/09/09 00:00:52;;;;;;;0.50;0.50;;;19.10;99.90;;;;;;5095378;28;20050;-82
2023/09/09 00:03:21;;;;;;;0.73;0.65;;;19.20;99.90;;;;;;5097575;28;20119;-83
2023/09/09 00:05:47;;;;;;;0.40;0.40;;;19.10;99.90;;;;;;5097461;28;20082;-81
2023/09/09 00:08:13;;;;;;;0.75;0.68;;;19.10;99.90;;;;;;5097342;28;20067;-81
2023/09/09 00:10:39;;;;;;;0.40;0.40;;;19.10;99.90;;;;;;5096135;28;20043;-81
2023/09/09 00:13:06;;;;;;;1.23;0.77;;;19.00;99.90;;;;;;5097405;28;20036;-82
2023/09/09 00:15:33;;;;;;;1.60;0.52;;;18.90;99.90;;;;;;5097578;28;20106;-81
2023/09/09 00:18:00;;;;;;;0.55;0.50;;;18.80;99.90;;;;;;5096052;28;20123;-83
2023/09/09 00:20:36;;;;;;;0.50;0.50;;;18.80;99.90;;;;;;5097264;28;20058;-81
2023/09/09 00:23:07;;;;;;;0.63;0.60;;;18.80;99.90;;;;;;5097147;28;20036;-81
2023/09/09 00:25:41;;;;;;;0.40;0.40;;;18.70;99.90;;;;;;5097544;28;20119;-82
2023/09/09 00:28:09;;;;;;;0.55;0.55;;;18.70;99.90;;;;;;5096074;28;20040;-82
2023/09/09 00:30:35;;;;;;;0.30;0.30;;;18.70;99.90;;;;;;5096912;28;20032;-82
2023/09/09 00:33:00;;;;;;;1.10;0.90;;;18.80;99.90;;;;;;5096933;28;20494;-82
2023/09/09 00:35:27;;;;;;;0.50;0.50;;;18.70;99.90;;;;;;5129822;27;20118;-81
2023/09/09 00:37:53;;;;;;;0.40;0.40;;;18.70;99.90;;;;;;5096967;28;20043;-82
2023/09/09 00:40:18;;;;;;;0.60;0.60;;;18.70;99.90;;;;;;5097167;28;20375;-82
2023/09/09 00:42:44;;;;;;;0.97;0.80;;;18.60;99.90;;;;;;5096822;28;20032;-82
2023/09/09 00:45:10;;;;;;;0.50;0.50;;;18.60;99.90;;;;;;5096777;28;20509;-83
2023/09/09 00:47:37;;;;;;;0.47;0.47;;;18.60;99.90;;;;;;5096638;28;20040;-82
2023/09/09 00:50:05;;;;;;;0.50;0.50;;;18.60;99.90;;;;;;5096225;28;20787;-81
2023/09/09 00:52:32;;;;;;;0.50;0.50;;;18.60;99.90;;;;;;5096691;28;20046;-81
2023/09/09 00:54:58;;;;;;;1.10;0.63;;;18.60;99.90;;;;;;5096955;28;20048;-82
2023/09/09 00:57:25;;;;;;;;;;;18.70;99.90;;;;;;5096326;28;20371;-82
2023/09/09 00:59:51;;;;;;;1.52;0.70;;;18.60;99.90;;;;;;5096487;28;19927;-81
2023/09/09 01:02:16;;;;;;;0.43;0.43;;;18.60;99.90;;;;;;5096372;28;20040;-81
2023/09/09 01:04:42;;;;;;;0.50;0.40;;;18.60;99.90;;;;;;5096427;28;20048;-82
2023/09/09 01:07:08;;;;;;;0.97;0.83;;;18.60;99.90;;;;;;5096627;28;20072;-81
2023/09/09 01:09:33;;;;;;;0.40;0.40;;;18.60;99.90;;;;;;5096057;28;20056;-82
2023/09/09 01:11:59;;;;;;;0.80;0.67;;;18.60;99.90;;;;;;5095609;28;20032;-81
2023/09/09 01:14:25;;;;;;;0.43;0.43;;;18.60;99.90;;;;;;5095907;28;20086;-82
2023/09/09 01:16:53;;;;;;;0.90;0.67;;;18.60;99.90;;;;;;5095857;28;20270;-82
2023/09/09 01:19:25;;;;;;;0.40;0.40;;;18.60;99.90;;;;;;5096141;28;20064;-82
2023/09/09 01:21:53;;;;;;;2.35;0.52;;;18.60;99.90;;;;;;5094763;28;20379;-81
2023/09/09 01:24:20;;;;;;;1.55;0.82;;;18.60;99.90;;;;;;5096409;28;20123;-82
2023/09/09 01:26:46;;;;;;;0.95;0.55;;;18.60;99.90;;;;;;5096108;28;20118;-82
2023/09/09 01:29:12;;;;;;;0.30;0.30;;;18.50;99.90;;;;;;5095901;28;20128;-82
2023/09/09 01:31:38;;;;;;;0.40;0.40;;;18.50;99.90;;;;;;5095708;28;20451;-82
2023/09/09 01:34:04;;;;;;;0.60;0.60;;;18.50;99.90;;;;;;5096015;28;20183;-83
2023/09/09 01:36:30;;;;;;;0.50;0.50;;;18.50;99.90;;;;;;5095820;28;20044;-82
2023/09/09 01:38:56;;;;;;;0.40;0.40;;;18.50;99.90;;;;;;5095580;28;20270;-83
2023/09/09 01:41:22;;;;;;;0.52;0.50;;;18.50;99.90;;;;;;5095713;28;20032;-81
2023/09/09 01:43:47;;;;;;;1.20;0.80;;;18.50;99.90;;;;;;5095660;28;20379;-82
2023/09/09 01:46:13;;;;;;;0.80;0.80;;;18.40;99.90;;;;;;5095508;28;20131;-82
2023/09/09 01:48:39;;;;;;;0.83;0.77;;;18.40;99.90;;;;;;5096426;28;20048;-83
2023/09/09 01:51:05;;;;;;;0.63;0.60;;;18.40;99.90;;;;;;5094202;28;20421;-82
2023/09/09 01:53:30;;;;;;;0.68;0.60;;;18.30;99.90;;;;;;5095429;28;20063;-81
2023/09/09 01:55:58;;;;;;;1.03;0.93;;;18.30;99.90;;;;;;5095631;28;20036;-82
2023/09/09 01:58:23;;;;;;;0.75;0.52;;;18.30;99.90;;;;;;5095304;28;20042;-82
2023/09/09 02:00:49;;;;;;;0.97;0.50;;;18.20;99.90;;;;;;5095193;28;20032;-81
2023/09/09 02:03:14;;;;;;;0.50;0.50;;;18.20;99.90;;;;;;5095659;28;20036;-81
2023/09/09 02:05:40;;;;;;;0.80;0.80;;;18.20;99.90;;;;;;5095196;28;20048;-81
2023/09/09 02:08:06;;;;;;;0.60;0.60;;;18.20;99.90;;;;;;5095185;28;20452;-82
2023/09/09 02:10:32;;;;;;;0.50;0.50;;;18.10;99.90;;;;;;5095006;28;20094;-81
2023/09/09 02:12:58;;;;;;;0.50;0.50;;;18.10;99.90;;;;;;5094779;28;20045;-81
2023/09/09 02:15:23;;;;;;;0.50;0.50;;;18.10;99.90;;;;;;5128123;27;20097;-82
2023/09/09 02:17:49;;;;;;;0.90;0.90;;;18.10;99.90;;;;;;5095454;28;20039;-81
2023/09/09 02:20:15;;;;;;;0.53;0.53;;;18.00;99.90;;;;;;5094967;28;20040;-82
2023/09/09 02:22:40;;;;;;;0.60;0.60;;;18.00;99.90;;;;;;5095165;28;20040;-81
2023/09/09 02:25:08;;;;;;;0.90;0.80;;;18.00;99.90;;;;;;5094624;28;20449;-81
2023/09/09 02:27:34;;;;;;;0.52;0.52;;;18.00;99.90;;;;;;5094784;28;20387;-81
2023/09/09 02:30:00;;;;;;;0.40;0.40;;;18.00;99.90;;;;;;5094704;28;20028;-81
2023/09/09 02:32:26;;;;;;;1.73;0.50;;;18.00;99.90;;;;;;5095424;28;20093;-82
2023/09/09 02:34:52;;;;;;;1.13;1.00;;;17.90;99.90;;;;;;5094861;28;20040;-80
2023/09/09 02:37:19;;;;;;;0.60;0.60;;;17.90;99.90;;;;;;5094609;28;20047;-81
2023/09/09 02:39:50;;;;;;;0.47;0.47;;;17.80;99.90;;;;;;5127624;27;20048;-82
2023/09/09 02:42:21;;;;;;;0.45;0.45;;;17.80;99.90;;;;;;5094577;28;20082;-81
2023/09/09 02:44:49;;;;;;;0.43;0.43;;;17.80;99.90;;;;;;5094487;28;20036;-82
2023/09/09 02:47:15;;;;;;;0.52;0.50;;;17.80;99.90;;;;;;5094290;28;20044;-82
2023/09/09 02:49:43;;;;;;;0.40;0.40;;;17.70;99.90;;;;;;5094311;28;20039;-81
2023/09/09 02:52:09;;;;;;;1.15;0.88;;;17.70;99.90;;;;;;5094382;28;20040;-81
2023/09/09 02:54:35;;;;;;;0.30;0.30;;;17.70;99.90;;;;;;5094312;28;20046;-81
2023/09/09 02:57:03;;;;;;;0.40;0.40;;;17.70;99.90;;;;;;5094491;28;20052;-82
2023/09/09 02:59:30;;;;;;;0.75;0.75;;;17.60;99.90;;;;;;5094072;28;20419;-81
2023/09/09 03:01:55;;;;;;;0.43;0.43;;;17.70;99.90;;;;;;5094195;28;20044;-81
2023/09/09 03:04:21;;;;;;;0.70;0.60;;;17.70;99.90;;;;;;5094120;28;20475;-81
2023/09/09 03:06:47;;;;;;;0.50;0.50;;;17.70;99.90;;;;;;5093823;28;20482;-81
2023/09/09 03:09:15;;;;;;;0.50;0.50;;;17.70;99.90;;;;;;5093553;28;20052;-81
2023/09/09 03:11:41;;;;;;;0.88;0.77;;;17.70;99.90;;;;;;5094041;28;20360;-81
2023/09/09 03:14:07;;;;;;;0.60;0.60;;;17.70;99.90;;;;;;5093926;28;20051;-82
2023/09/09 03:16:33;;;;;;;0.63;0.60;;;17.70;99.90;;;;;;5093972;28;20032;-81
2023/09/09 03:18:58;;;;;;;0.50;0.50;;;17.70;99.90;;;;;;5093983;28;20486;-82
2023/09/09 03:21:24;;;;;;;0.40;0.40;;;17.60;99.90;;;;;;5094040;28;20047;-82
2023/09/09 03:23:50;;;;;;;1.23;0.53;;;17.60;99.90;;;;;;5093983;28;20040;-82
2023/09/09 03:26:19;;;;;;;0.93;0.70;;;17.60;99.90;;;;;;5093995;28;20043;-81
2023/09/09 03:28:48;;;;;;;1.08;0.80;;;17.60;99.90;;;;;;5093874;28;20122;-81
2023/09/09 03:31:14;;;;;;;0.77;0.77;;;17.60;99.90;;;;;;5093571;28;20048;-81
2023/09/09 03:33:40;;;;;;;0.70;0.70;;;17.50;99.90;;;;;;5093790;28;20047;-81
2023/09/09 03:36:07;;;;;;;0.40;0.40;;;17.50;99.90;;;;;;5093256;28;20093;-82
2023/09/09 03:38:33;;;;;;;0.93;0.70;;;17.50;99.90;;;;;;5093824;28;20047;-82
2023/09/09 03:40:59;;;;;;;2.00;1.13;;;17.50;99.90;;;;;;5093688;28;20036;-82
2023/09/09 03:43:24;;;;;;;0.30;0.30;;;17.50;99.90;;;;;;5093769;28;20042;-80
2023/09/09 03:45:54;;;;;;;0.40;0.40;;;17.40;99.90;;;;;;5093887;28;20048;-82
2023/09/09 03:48:20;;;;;;;0.80;0.70;;;17.40;99.90;;;;;;5093772;28;20468;-82
2023/09/09 03:50:45;;;;;;;0.57;0.57;;;17.40;99.90;;;;;;5092719;28;20028;-81
2023/09/09 03:53:11;;;;;;;0.70;0.70;;;17.40;99.90;;;;;;5093592;28;20036;-82
2023/09/09 03:55:37;;;;;;;0.73;0.57;;;17.40;99.90;;;;;;5093603;28;20051;-82
2023/09/09 03:58:02;;;;;;;0.50;0.50;;;17.40;99.90;;;;;;5093261;28;20075;-81
2023/09/09 04:00:28;;;;;;;0.50;0.50;;;17.40;99.90;;;;;;5093611;28;20040;-81
2023/09/09 04:02:54;;;;;;;4.03;1.60;;;17.40;99.90;;;;;;5093567;28;20046;-81
2023/09/09 04:05:19;;;;;;;0.97;0.90;;;17.40;99.90;;;;;;5092601;28;20040;-82
2023/09/09 04:07:45;;;;;;;0.50;0.50;;;17.30;99.90;;;;;;5093331;28;20112;-81
2023/09/09 04:10:12;;;;;;;0.70;0.63;;;17.30;99.90;;;;;;5093413;28;20047;-81
2023/09/09 04:12:37;;;;;;;0.80;0.55;;;17.40;99.90;;;;;;5093399;28;20044;-82
2023/09/09 04:15:05;;;;;;;1.23;1.13;;;17.30;99.90;;;;;;5093068;28;20157;-82
2023/09/09 04:17:30;;;;;;;0.50;0.50;;;17.30;99.90;;;;;;5093869;28;20388;-82
2023/09/09 04:19:56;;;;;;;0.33;0.33;;;17.20;99.90;;;;;;5093409;28;20039;-82
2023/09/09 04:22:22;;;;;;;0.45;0.45;;;17.30;99.90;;;;;;5093350;28;20086;-82
2023/09/09 04:24:48;;;;;;;0.77;0.77;;;17.30;99.90;;;;;;5093348;28;20079;-81
2023/09/09 04:27:14;;;;;;;1.70;1.07;;;17.30;99.90;;;;;;5092298;28;20032;-82
2023/09/09 04:29:39;;;;;;;0.70;0.70;;;17.20;99.90;;;;;;5092895;28;20162;-82
2023/09/09 04:32:05;;;;;;;1.30;0.83;;;17.20;99.90;;;;;;5093257;28;20082;-81
2023/09/09 04:34:31;;;;;;;0.90;0.83;;;17.10;99.90;;;;;;5093694;28;20044;-81
2023/09/09 04:36:57;;;;;;;1.73;0.70;;;17.10;99.90;;;;;;5092852;28;20479;-81
2023/09/09 04:39:22;;;;;;;1.13;0.77;;;17.10;99.90;;;;;;5093421;28;20035;-81
2023/09/09 04:41:48;;;;;;;0.57;0.57;;;17.00;99.90;;;;;;5093270;28;20482;-82
2023/09/09 04:44:14;;;;;;;1.07;0.83;;;17.10;99.90;;;;;;5093161;28;20040;-82
2023/09/09 04:46:40;;;;;;;0.73;0.73;;;17.10;99.90;;;;;;5093197;28;20115;-82
2023/09/09 04:49:05;;;;;;;0.60;0.60;;;17.10;99.90;;;;;;5096412;28;20534;-83
2023/09/09 04:51:31;;;;;;;0.97;0.57;;;17.10;99.90;;;;;;5096808;28;20056;-83
2023/09/09 04:53:57;;;;;;;1.00;0.90;;;17.10;99.90;;;;;;5096556;28;20050;-82
2023/09/09 04:56:22;;;;;;;1.00;0.57;;;17.00;99.90;;;;;;5096437;28;20181;-81
2023/09/09 04:58:49;;;;;;;1.00;0.70;;;17.00;99.90;;;;;;5096526;28;20032;-81
2023/09/09 05:01:15;;;;;;;0.50;0.50;;;17.10;99.90;;;;;;5095466;28;20051;-82
2023/09/09 05:03:41;;;;;;;0.50;0.50;;;17.10;99.90;;;;;;5096628;28;20040;-81
2023/09/09 05:06:07;;;;;;;1.10;0.90;;;17.10;99.90;;;;;;5096713;28;20097;-80
2023/09/09 05:08:32;;;;;;;0.60;0.60;;;17.10;99.90;;;;;;5096357;28;20063;-81
2023/09/09 05:10:58;;;;;;;0.70;0.70;;;17.10;99.90;;;;;;5096190;28;20294;-81
2023/09/09 05:13:23;;;;;;;0.77;0.77;;;17.00;99.90;;;;;;5096266;28;20043;-82
2023/09/09 05:15:50;;;;;;;0.73;0.60;;;17.00;99.90;;;;;;5112188;28;20141;-81
2023/09/09 05:18:16;;;;;;;1.13;0.77;;;17.10;99.90;;;;;;5096157;28;20455;-81
2023/09/09 05:20:43;;;;;;;0.50;0.50;;;17.10;99.90;;;;;;5095209;28;20055;-82
2023/09/09 05:23:09;;;;;;;;;;;17.10;99.90;;;;;;5096523;28;20059;-81
2023/09/09 05:25:34;;;;;;;1.10;0.80;;;17.10;99.90;;;;;;5095676;28;20345;-81
2023/09/09 05:28:00;;;;;;;0.80;0.80;;;17.10;99.90;;;;;;5096334;28;20040;-81
2023/09/09 05:30:26;;;;;;;0.90;0.70;;;17.20;99.90;;;;;;5095948;28;20028;-81
2023/09/09 05:32:52;;;;;;;1.90;0.60;;;17.10;99.90;;;;;;5095946;28;20682;-80
2023/09/09 05:35:17;;;;;;;0.53;0.53;;;17.20;99.90;;;;;;5095920;28;20044;-81
2023/09/09 05:37:44;;;;;;;1.00;0.70;;;17.20;99.90;;;;;;5096392;28;20090;-82
2023/09/09 05:40:10;;;;;;;;;;;17.20;99.90;;;;;;5096205;28;20040;-81
2023/09/09 05:42:35;;;;;;;1.02;0.95;;;17.30;99.90;;;;;;5095953;28;19922;-81
2023/09/09 05:45:03;;;;;;;3.13;1.00;;;17.30;99.90;;;;;;5094692;28;20090;-80
2023/09/09 05:47:29;;;;;;;1.20;1.02;;;17.30;99.90;;;;;;5094616;28;20116;-82
2023/09/09 05:49:55;;;;;;;0.57;0.57;;;17.30;99.90;;;;;;5094324;28;20459;-81
2023/09/09 05:52:20;;;;;;;0.97;0.80;;;17.40;99.90;;;;;;5095524;28;20040;-81
2023/09/09 05:54:46;;;;;;;0.70;0.67;;;17.40;99.90;;;;;;5095495;28;20040;-81
2023/09/09 05:57:11;;;;;;;5.83;1.57;;;17.40;99.90;;;;;;5095324;28;20101;-80
2023/09/09 05:59:38;;;;;;;1.00;0.87;;;17.50;99.90;;;;;;5095139;28;20043;-81
2023/09/09 06:02:04;;;;;;;0.50;0.50;;;17.40;99.90;;;;;;5095500;28;20038;-81
2023/09/09 06:04:30;;;;;;;0.40;0.40;;;17.50;99.90;;;;;;5095312;28;20089;-80
2023/09/09 06:06:56;;;;;;;1.20;0.80;;;17.60;99.90;;;;;;5094609;28;20043;-81
2023/09/09 06:09:22;;;;;;;0.70;0.70;;;17.60;99.90;;;;;;5094914;28;20044;-80
2023/09/09 06:11:49;;;;;;;1.10;0.93;;;17.60;99.90;;;;;;5094965;28;20078;-83
2023/09/09 06:14:15;;;;;;;0.55;0.55;;;17.50;99.90;;;;;;5095101;28;20031;-83
2023/09/09 06:16:41;;;;;;;1.87;1.37;;;17.60;99.90;;;;;;5094987;28;20123;-81
2023/09/09 06:19:06;;;;;;;2.17;1.60;;;17.70;99.90;;;;;;5094905;28;20044;-81
2023/09/09 06:21:32;;;;;;;3.40;1.40;;;17.70;99.90;;;;;;5094973;28;20043;-82
2023/09/09 06:23:58;;;;;;;1.17;1.07;;;17.70;99.90;;;;;;5094982;28;20051;-81
2023/09/09 06:26:24;;;;;;;1.37;0.87;;;17.80;99.90;;;;;;5095001;28;20459;-81
2023/09/09 06:28:50;;;;;;;0.98;0.88;;;17.80;99.90;;;;;;5094721;28;20040;-81
2023/09/09 06:31:16;;;;;;;0.87;0.83;;;17.90;99.90;;;;;;5094704;28;20032;-81
2023/09/09 06:33:41;;;;;;;1.33;1.00;;;17.90;99.90;;;;;;5094436;28;20083;-81
2023/09/09 06:36:07;;;;;;;3.10;1.13;;;18.00;99.90;;;;;;5094628;28;20043;-82
2023/09/09 06:38:33;;;;;;;0.87;0.77;;;18.10;99.90;;;;;;5094655;28;20051;-81
2023/09/09 06:41:02;;;;;;;0.80;0.73;;;18.20;99.90;;;;;;5094591;28;20043;-82
2023/09/09 06:43:30;;;;;;;1.02;0.85;;;18.30;99.90;;;;;;5093990;28;20059;-82
2023/09/09 06:45:57;;;;;;;1.17;0.80;;;18.40;99.90;;;;;;5094505;28;20073;-82
2023/09/09 06:48:22;;;;;;;1.33;1.10;;;18.60;99.90;;;;;;5094105;28;20466;-82
2023/09/09 06:50:48;;;;;;;2.03;1.13;;;18.70;99.90;;;;;;5094233;28;20093;-81
2023/09/09 06:53:15;;;;;;;2.10;0.77;;;18.80;99.90;;;;;;5093605;28;20378;-81
2023/09/09 06:55:44;;;;;;;1.15;0.73;;;19.00;99.90;;;;;;5094273;28;20411;-82
2023/09/09 06:58:10;;;;;;;2.25;1.58;;;19.10;99.90;;;;;;5094316;28;20042;-81
2023/09/09 07:00:36;;;;;;;1.10;1.00;;;19.30;99.90;;;;;;5094247;28;20123;-82
2023/09/09 07:03:02;;;;;;;3.50;1.25;;;19.40;99.90;;;;;;5094186;28;20373;-82
2023/09/09 07:05:27;;;;;;;2.27;1.63;;;19.50;99.90;;;;;;5094270;28;20096;-81
2023/09/09 07:07:53;;;;;;;2.13;0.80;;;19.70;99.90;;;;;;5093982;28;20463;-82
2023/09/09 07:10:19;;;;;;;0.70;0.70;;;19.80;99.90;;;;;;5093286;28;20055;-82
2023/09/09 07:12:44;;;;;;;1.80;1.40;;;19.90;99.90;;;;;;5094034;28;20036;-82
2023/09/09 07:15:10;;;;;;;1.27;0.87;;;20.10;99.90;;;;;;5093950;28;20151;-82
2023/09/09 07:17:36;;;;;;;0.50;0.50;;;20.20;99.90;;;;;;5094259;28;20028;-83
2023/09/09 07:20:02;;;;;;;1.00;0.90;;;20.40;99.90;;;;;;5093996;28;20043;-83
2023/09/09 07:22:27;;;;;;;1.23;0.90;;;20.50;99.90;;;;;;5093943;28;20046;-82
2023/09/09 07:24:53;;;;;;;1.23;0.50;;;20.70;99.90;;;;;;5093036;28;20059;-84
2023/09/09 07:27:19;;;;;;;1.10;0.80;;;20.80;99.90;;;;;;5093831;28;20376;-83
2023/09/09 07:29:45;;;;;;;1.17;1.08;;;20.90;99.90;;;;;;5092985;28;20151;-82
2023/09/09 07:32:10;;;;;;;0.73;0.70;;;21.10;99.90;;;;;;5093880;28;20122;-82
2023/09/09 07:34:36;;;;;;;1.60;1.23;;;21.20;99.90;;;;;;5094047;28;20433;-82
2023/09/09 07:37:02;;;;;;;1.77;1.03;;;21.30;99.90;;;;;;5093812;28;20429;-82
2023/09/09 07:39:27;;;;;;;0.50;0.50;;;21.50;99.90;;;;;;5093712;28;20032;-82
2023/09/09 07:41:53;;;;;;;0.67;0.67;;;21.50;99.90;;;;;;5094178;28;20554;-83
2023/09/09 07:44:19;;;;;;;1.00;0.90;;;21.70;99.90;;;;;;5093758;28;20059;-83
2023/09/09 07:46:45;;;;;;;0.70;0.60;;;21.80;99.90;;;;;;5093700;28;20282;-84
2023/09/09 07:49:10;;;;;;;2.03;0.57;;;21.90;99.90;;;;;;5093636;28;20420;-82
2023/09/09 07:51:36;;;;;;;1.53;1.43;;;22.00;99.90;;;;;;5093778;28;20530;-83
2023/09/09 07:54:02;;;;;;;0.40;0.40;;;22.10;99.90;;;;;;5093610;28;20363;-83
2023/09/09 07:56:27;;;;;;;3.47;1.40;;;22.20;99.90;;;;;;5092896;28;20173;-82
2023/09/09 07:58:53;;;;;;;0.90;0.90;;;22.30;99.90;;;;;;5093902;28;20036;-82
2023/09/09 08:01:19;;;;;;;0.90;0.63;;;22.30;99.90;;;;;;5126870;28;20036;-82
2023/09/09 08:03:45;;;;;;;0.90;0.90;;;22.40;99.90;;;;;;5093721;28;20118;-82
2023/09/09 08:06:10;;;;;;;1.40;0.87;;;22.50;99.90;;;;;;5126479;28;20047;-82
2023/09/09 08:08:36;;;;;;;1.13;1.00;;;22.60;99.90;;;;;;5091979;28;20475;-83
2023/09/09 08:11:05;;;;;;;0.83;0.60;;;22.60;99.90;;;;;;5093386;28;20107;-82
2023/09/09 08:13:31;;;;;;;0.68;0.68;;;22.70;99.90;;;;;;5093431;28;20136;-82
2023/09/09 08:15:58;;;;;;;2.70;1.08;;;22.80;99.90;;;;;;5093453;28;20036;-83
2023/09/09 08:18:24;;;;;;;0.77;0.77;;;22.90;99.90;;;;;;5092218;28;20044;-82
2023/09/09 08:20:53;;;;;;;2.45;1.40;;;23.00;99.90;;;;;;5093330;28;20086;-82
2023/09/09 08:23:19;;;;;;;1.00;0.90;;;23.00;99.90;;;;;;5095930;28;20036;-84
2023/09/09 08:25:45;;;;;;;0.40;0.40;;;23.10;99.90;;;;;;5097362;28;20121;-82
2023/09/09 08:28:11;;;;;;;0.80;0.60;;;23.30;99.90;;;;;;5097133;28;20043;-82
2023/09/09 08:30:36;;;;;;;1.13;0.73;;;23.40;99.90;;;;;;5097049;28;20115;-82
2023/09/09 08:33:02;;;;;;;0.43;0.43;;;23.50;99.90;;;;;;5095523;28;20032;-83
2023/09/09 08:35:31;;;;;;;0.80;0.80;;;23.60;99.90;;;;;;5095771;28;20083;-83
2023/09/09 08:37:59;;;;;;;0.50;0.50;;;23.70;99.90;;;;;;5096895;28;20355;-82
2023/09/09 08:40:25;;;;;;;0.65;0.60;;;23.80;99.90;;;;;;5096681;28;20032;-83
2023/09/09 08:42:51;;;;;;;0.73;0.60;;;23.90;99.90;;;;;;5096059;28;20082;-82
2023/09/09 08:45:56;;;;;;;2.87;1.43;;;23.90;99.90;;;;;;5097138;28;20079;-83
2023/09/09 08:48:23;;;;;;;0.45;0.45;;;24.00;99.90;;;;;;5084080;28;20048;-83
2023/09/09 08:50:50;;;;;;;0.55;0.45;;;24.10;99.90;;;;;;5095395;28;20115;-82
2023/09/09 08:53:17;;;;;;;0.30;0.30;;;24.20;99.90;;;;;;5129196;27;20040;-83
2023/09/09 08:55:43;;;;;;;0.50;0.50;;;24.30;99.90;;;;;;5096588;28;20127;-82
2023/09/09 08:58:09;;;;;;;1.30;0.80;;;24.40;99.90;;;;;;5096905;28;20132;-82
2023/09/09 09:00:37;;;;;;;0.85;0.65;;;24.50;99.90;;;;;;5096780;28;20031;-82
2023/09/09 09:03:04;;;;;;;0.93;0.73;;;24.60;99.90;;;;;;5096417;28;20047;-82
2023/09/09 09:05:31;;;;;;;0.60;0.57;;;24.60;99.90;;;;;;5095266;28;20375;-82
2023/09/09 09:07:57;;;;;;;1.10;0.80;;;24.70;99.90;;;;;;5096570;28;20052;-83
2023/09/09 09:10:23;;;;;;;0.80;0.80;;;24.80;99.90;;;;;;5095220;28;20040;-83
2023/09/09 09:12:48;;;;;;;0.80;0.68;;;24.80;99.90;;;;;;5096364;28;20097;-83
2023/09/09 09:15:14;;;;;;;0.60;0.60;;;24.90;99.90;;;;;;5096324;28;20044;-82
2023/09/09 09:17:43;;;;;;;1.37;0.93;;;25.00;99.90;;;;;;5096225;28;20102;-83
2023/09/09 09:20:41;;;;;;;0.73;0.73;;;25.00;99.90;;;;;;5096089;28;20367;-83
2023/09/09 09:23:12;;;;;;;0.68;0.68;;;25.10;99.90;;;;;;5084009;28;20043;-83
2023/09/09 09:25:45;;;;;;;0.40;0.40;;;25.10;99.90;;;;;;5096360;28;20035;-82
2023/09/09 09:28:15;;;;;;;0.45;0.45;;;25.10;99.90;;;;;;5095945;28;20123;-83
2023/09/09 09:30:41;;;;;;;0.43;0.40;;;25.20;99.90;;;;;;5095933;28;20040;-82
2023/09/09 09:33:07;;;;;;;0.43;0.43;;;25.30;99.90;;;;;;5095053;28;20429;-83
2023/09/09 09:35:36;;;;;;;0.70;0.70;;;25.40;99.90;;;;;;5096084;28;20040;-83
2023/09/09 09:38:07;;;;;;;1.05;0.70;;;25.50;99.90;;;;;;5095957;28;20462;-83
2023/09/09 09:40:34;;;;;;;0.40;0.40;;;25.60;99.90;;;;;;5127511;27;20463;-82
2023/09/09 09:43:00;;;;;;;1.13;0.70;;;25.70;99.90;;;;;;5095666;28;20575;-84
2023/09/09 09:45:27;;;;;;;1.00;0.90;;;25.80;99.90;;;;;;5095683;28;20138;-83
2023/09/09 09:47:53;;;;;;;1.90;1.17;;;25.90;99.90;;;;;;5095586;28;20372;-83
2023/09/09 09:50:25;;;;;;;;;;;25.90;99.90;;;;;;5095903;28;20048;-83
2023/09/09 09:53:08;;;;;;;2.78;1.25;;;26.00;99.90;;;;;;5094367;28;19920;-82
2023/09/09 09:55:35;;;;;;;0.73;0.73;;;26.10;99.90;;;;;;5095523;28;20051;-83
2023/09/09 09:58:03;;;;;;;1.58;0.80;;;26.20;99.90;;;;;;5095148;28;20043;-83
2023/09/09 10:00:30;;;;;;;1.23;1.13;;;26.30;99.90;;;;;;5095310;28;20119;-82
2023/09/09 10:02:57;;;;;;;1.67;0.47;;;26.30;99.90;;;;;;5094162;28;20131;-83
2023/09/09 10:05:25;;;;;;;0.52;0.50;;;26.40;99.90;;;;;;5095306;28;20032;-83
2023/09/09 10:08:07;;;;;;;1.20;1.10;;;26.50;99.90;;;;;;5095117;28;20527;-83
2023/09/09 10:10:35;;;;;;;0.75;0.70;;;26.60;99.90;;;;;;5095130;28;20072;-83
2023/09/09 10:13:07;;;;;;;1.25;0.90;;;26.60;99.90;;;;;;5127856;27;20040;-83
2023/09/09 10:15:34;;;;;;;0.65;0.50;;;26.60;99.90;;;;;;5095229;28;20082;-83
2023/09/09 10:18:02;;;;;;;0.60;0.60;;;26.60;99.90;;;;;;5094940;28;20055;-85
2023/09/09 10:20:29;;;;;;;0.80;0.70;;;26.70;99.90;;;;;;5094986;28;20387;-82
2023/09/09 10:22:59;;;;;;;0.30;0.30;;;26.80;99.90;;;;;;5094512;28;20436;-83
2023/09/09 10:25:32;;;;;;;0.52;0.50;;;26.90;99.90;;;;;;5094870;28;20044;-82
2023/09/09 10:27:59;;;;;;;0.60;0.60;;;26.90;99.90;;;;;;5094056;28;20036;-83
2023/09/09 10:30:27;;;;;;;0.35;0.35;;;27.00;99.90;;;;;;5093194;28;20391;-84
2023/09/09 10:32:55;;;;;;;0.40;0.40;;;27.00;99.90;;;;;;5094239;28;20084;-82
2023/09/09 10:35:23;;;;;;;1.48;0.95;;;27.10;99.90;;;;;;5093547;28;20044;-84
2023/09/09 10:37:51;;;;;;;0.55;0.50;;;27.10;99.90;;;;;;5094668;28;20115;-82
2023/09/09 10:40:18;;;;;;;0.65;0.52;;;27.20;99.90;;;;;;5093288;28;20394;-81
2023/09/09 10:42:44;;;;;;;0.85;0.80;;;27.20;99.90;;;;;;5094463;28;20169;-84
2023/09/09 10:45:30;;;;;;;0.75;0.65;;;27.30;99.90;;;;;;5094333;28;20040;-77
2023/09/09 10:48:04;;;;;;;1.60;0.80;;;27.40;99.90;;;;;;5093569;28;20036;-80
2023/09/09 10:50:43;;;;;;;0.80;0.50;;;27.40;99.90;;;;;;5094522;28;20118;-78
2023/09/09 10:53:26;;;;;;;0.55;0.50;;;27.50;99.90;;;;;;5094640;28;20039;-79
2023/09/09 10:55:54;;;;;;;0.50;0.50;;;27.60;99.90;;;;;;5093450;28;20032;-79
2023/09/09 10:58:30;;;;;;;0.47;0.47;;;27.60;99.90;;;;;;5094494;28;20233;-78
2023/09/09 11:00:57;;;;;;;1.08;0.98;;;27.70;99.90;;;;;;5094489;28;20047;-79
2023/09/09 11:03:25;;;;;;;0.75;0.75;;;27.80;99.90;;;;;;5094071;28;20088;-80
2023/09/09 11:06:00;;;;;;;1.10;0.95;;;27.80;99.90;;;;;;5094184;28;20043;-80
2023/09/09 11:08:29;;;;;;;1.02;0.80;;;27.80;99.90;;;;;;5094032;28;20056;-79
2023/09/09 11:11:10;;;;;;;1.67;1.23;;;27.80;99.90;;;;;;5094059;28;20478;-78
2023/09/09 11:13:48;;;;;;;0.95;0.85;;;27.90;99.90;;;;;;5092904;28;20044;-77
2023/09/09 11:16:27;;;;;;;0.60;0.52;;;27.90;99.90;;;;;;5092248;28;20040;-75
2023/09/09 11:18:54;;;;;;;1.05;0.77;;;28.00;99.90;;;;;;5093744;28;20036;-79
2023/09/09 11:21:23;;;;;;;0.40;0.40;;;28.10;99.90;;;;;;5093865;28;20375;-76
2023/09/09 11:23:52;;;;;;;0.85;0.85;;;28.20;99.90;;;;;;5093813;28;20081;-76
2023/09/09 11:26:18;;;;;;;1.33;1.10;;;28.30;99.90;;;;;;5094241;28;20036;-80
2023/09/09 11:28:48;;;;;;;1.02;0.75;;;28.30;99.90;;;;;;5092900;28;20361;-79
2023/09/09 11:31:15;;;;;;;0.80;0.80;;;28.30;99.90;;;;;;5093728;28;20044;-80
2023/09/09 11:33:41;;;;;;;0.47;0.40;;;28.30;99.90;;;;;;5093702;28;20051;-80
2023/09/09 11:36:07;;;;;;;0.95;0.68;;;28.30;99.90;;;;;;5093791;28;20460;-81
2023/09/09 11:38:33;;;;;;;0.70;0.52;;;28.40;99.90;;;;;;5094069;28;20383;-83
2023/09/09 11:40:59;;;;;;;;;;;28.40;99.90;;;;;;5094247;28;20059;-82
2023/09/09 11:43:25;;;;;;;0.85;0.63;;;28.40;99.90;;;;;;5093004;28;19916;-82
2023/09/09 11:45:52;;;;;;;0.60;0.60;;;28.50;99.90;;;;;;5093766;28;20105;-80
2023/09/09 11:48:18;;;;;;;0.68;0.60;;;28.50;99.90;;;;;;5093568;28;20517;-82
2023/09/09 11:50:45;;;;;;;0.50;0.50;;;28.50;99.90;;;;;;5094087;28;20036;-83
2023/09/09 11:53:12;;;;;;;0.75;0.65;;;28.50;99.90;;;;;;5093887;28;20047;-78
2023/09/09 11:55:38;;;;;;;0.22;0.22;;;28.50;99.90;;;;;;5093643;28;20070;-81
2023/09/09 11:58:04;;;;;;;;;;;28.50;99.90;;;;;;5096640;28;20479;-79
2023/09/09 12:00:30;;;;;;;0.40;0.40;;;28.60;99.90;;;;;;5097526;28;19923;-82
2023/09/09 12:02:55;;;;;;;0.55;0.50;;;28.60;99.90;;;;;;5097723;28;20039;-79
2023/09/09 12:05:25;;;;;;;0.82;0.73;;;28.70;99.90;;;;;;5097738;28;20401;-77
2023/09/09 12:07:51;;;;;;;0.80;0.52;;;28.70;99.90;;;;;;5096255;28;20064;-80
2023/09/09 12:10:17;;;;;;;0.90;0.70;;;28.80;99.90;;;;;;5097824;28;20040;-79
2023/09/09 12:12:45;;;;;;;0.40;0.40;;;28.90;99.90;;;;;;5096532;28;20136;-80
2023/09/09 12:15:14;;;;;;;0.63;0.63;;;29.00;99.90;;;;;;5097427;28;20070;-80
2023/09/09 12:17:40;;;;;;;0.65;0.63;;;29.00;99.90;;;;;;5097083;28;20536;-79
2023/09/09 12:20:09;;;;;;;0.40;0.40;;;29.00;99.90;;;;;;5097757;28;20043;-82
2023/09/09 12:22:40;;;;;;;0.65;0.65;;;29.00;99.90;;;;;;5096064;28;20044;-80
2023/09/09 12:25:27;;;;;;;0.50;0.50;;;29.10;99.90;;;;;;5097354;28;20051;-79
2023/09/09 12:27:52;;;;;;;0.30;0.30;;;29.10;99.90;;;;;;5095733;28;20093;-80
2023/09/09 12:30:33;;;;;;;0.73;0.50;;;29.10;99.90;;;;;;5097568;28;20044;-80
2023/09/09 12:33:05;;;;;;;0.63;0.60;;;29.10;99.90;;;;;;5097084;28;20062;-81
2023/09/09 12:35:35;;;;;;;0.80;0.70;;;29.10;99.90;;;;;;5096829;28;20055;-81
2023/09/09 12:38:02;;;;;;;0.40;0.40;;;29.10;99.90;;;;;;5097044;28;20122;-82
2023/09/09 12:40:29;;;;;;;0.38;0.38;;;29.10;99.90;;;;;;5096773;28;20038;-79
2023/09/09 12:42:56;;;;;;;0.60;0.60;;;29.20;99.90;;;;;;5097231;28;20368;-82
2023/09/09 12:45:25;;;;;;;5.43;0.80;;;29.20;99.90;;;;;;5095679;28;20032;-79
2023/09/09 12:48:08;;;;;;;0.43;0.40;;;29.20;99.90;;;;;;5129595;27;20464;-84